Aviation Digital Data Service (ADDS)

Output produced by METARs form (1704 UTC 24 April 2017)
found at http://www.aviationweather.gov/adds/metars/
 
FSPP 241600Z 31003KT //// //// 28/24 Q1013
FSIA 241700Z 21003KT 9999 FEW014CB SCT016 27/24 Q1012 NOSIG
TAF FSIA 241103Z 2412/2512 17010KT 9999 FEW015CB SCT016 
     TEMPO 2412/2418 8000 -SHRA FEW014CB BKN015 
     TEMPO 2500/2506 8000 -SHRA FEW014CB BKN015